Airfield :
LOGIN :

Register | Disclaimer

   EN    FR    IT 

 










Legend :    VFR   Marginal VFR   IFR   Intensive IFR   Very Intensive IFR
Visi :
Ceiling :
>= 8 km
>= 3000ft
5 to 8 km
1000 to 3000 ft
1500m to 5 km
500 to 1000 ft
800 to 1500m
200 to 500 ft
< 800m
< 200 ft
Symbols :   Thunderstorms  Fog  Heavy snow  Heavy precipitations  Wind > 20 kt
SIGMETs :     Misc.  Thunderstorms  Icing  Turbulence  Mountain Waves  Volcanic Ashes






- Airport Elevation : 131 ft
- IATA code : TLL


EETN - Talinn

CURRENT METAR :
  • 302020Z 08002KT CAVOK M05/M11 Q1024 R08/12//95 NOSIG

EXPIRED METARs :
  • 301950Z 06003KT CAVOK M03/M12 Q1024 R08/12//95 NOSIG
  • 301920Z 06004KT CAVOK M02/M12 Q1024 R08/12//95 NOSIG
  • 301850Z 04005KT CAVOK M02/M13 Q1024 R08/12//95 NOSIG
  • 301820Z 05006KT CAVOK M01/M14 Q1023 R08/12//95 NOSIG
  • 301750Z 06006KT CAVOK M01/M14 Q1023 R08/12//95 NOSIG

TAF TAF EETN
Valid from the 30 at 18:00 until the 31 at 18:00 UTC


301705Z 3018/3118 03005KT 9999 SCT030
BECMG 3107/3109 24014G25KT



MET'MAP, your aeronautical weather chart ! - Copyright ORBIFLY December 2007 - Disclaimer

ORBIFLY MET'MAP TEAM :

Programming & Development : Alexandra Zaïnal
Concept & original design : Baudouin d'Aumeries
Assistance for programming : Marc-Olivier Méhu
Technical & hardware support : Manuel Goepfert

Contact : metmap@orbifly.com




SOURCES & CREDITS :

   NOAA